createdAt,value
2023-05-03T00:01:31.794Z,101070.08
2023-05-03T00:03:59.517Z,101070.68
2023-05-03T00:06:28.158Z,101070.48
2023-05-03T00:08:56.126Z,101069.61
2023-05-03T00:11:23.891Z,101074.72
2023-05-03T00:13:51.708Z,101073.13
2023-05-03T00:16:20.723Z,101074.42
2023-05-03T00:18:49.480Z,101074.18
2023-05-03T00:21:17.361Z,101076.62
2023-05-03T00:23:45.158Z,101076.48
2023-05-03T00:26:13.034Z,101074.86
2023-05-03T00:28:41.724Z,101076.36
2023-05-03T00:31:11.038Z,101081.04
2023-05-03T00:33:40.149Z,101078.34
2023-05-03T00:36:09.861Z,101081.06
2023-05-03T00:38:38.140Z,101077.02
2023-05-03T00:41:06.865Z,101075.75
2023-05-03T00:43:35.413Z,101078.92
2023-05-03T00:46:15.930Z,101076.35
2023-05-03T00:48:50.779Z,101060.23
2023-05-03T00:51:20.748Z,101062.05
2023-05-03T00:53:48.508Z,101064.30
2023-05-03T00:56:26.390Z,101069.95
2023-05-03T00:58:54.516Z,101069.89
2023-05-03T01:01:22.510Z,101076.11
2023-05-03T01:03:50.799Z,101079.55
2023-05-03T01:06:43.675Z,101083.98
2023-05-03T01:09:39.793Z,101084.61
2023-05-03T01:12:23.846Z,101086.70
2023-05-03T01:15:08.481Z,101092.77
2023-05-03T01:17:42.220Z,101095.55
2023-05-03T01:20:14.202Z,101098.27
2023-05-03T01:22:56.390Z,101100.02
2023-05-03T01:25:25.304Z,101105.23
2023-05-03T01:27:53.061Z,101109.23
2023-05-03T01:30:24.086Z,101109.85
2023-05-03T01:33:13.634Z,101109.16
2023-05-03T01:36:02.395Z,101112.67
2023-05-03T01:38:37.332Z,101119.17
2023-05-03T01:41:12.733Z,101118.89
2023-05-03T01:43:40.706Z,101121.25
2023-05-03T01:46:08.568Z,101128.66
2023-05-03T01:48:36.706Z,101130.84
2023-05-03T01:51:04.583Z,101132.98
2023-05-03T01:53:32.295Z,101130.51
2023-05-03T01:55:59.997Z,101136.06
2023-05-03T01:58:27.853Z,101137.58
2023-05-03T02:00:56.777Z,101134.87
2023-05-03T02:03:24.610Z,101131.23
2023-05-03T02:05:52.294Z,101132.52
2023-05-03T02:08:20.172Z,101129.79
2023-05-03T02:10:47.998Z,101127.21
2023-05-03T02:13:17.245Z,101130.04
2023-05-03T02:15:44.953Z,101129.20
2023-05-03T02:18:12.722Z,101127.41
2023-05-03T02:20:44.996Z,101127.94
2023-05-03T02:23:13.246Z,101131.38
2023-05-03T02:25:41.640Z,101132.81
2023-05-03T02:28:09.431Z,101136.81
2023-05-03T02:30:37.254Z,101134.53
2023-05-03T02:33:05.044Z,101131.14
2023-05-03T02:35:33.189Z,101135.75
2023-05-03T02:38:00.922Z,101139.75
2023-05-03T02:40:28.844Z,101146.19
2023-05-03T02:42:56.810Z,101140.57
2023-05-03T02:45:26.603Z,101142.19
2023-05-03T02:47:55.091Z,101146.92
2023-05-03T02:50:23.177Z,101154.76
2023-05-03T02:52:50.987Z,101156.13
2023-05-03T02:55:18.896Z,101148.81
2023-05-03T02:57:47.054Z,101141.91
2023-05-03T03:00:16.869Z,101139.23
2023-05-03T03:02:44.976Z,101128.91
2023-05-03T03:05:13.063Z,101133.98
2023-05-03T03:07:41.299Z,101139.66
2023-05-03T03:10:09.783Z,101146.54
2023-05-03T03:12:37.841Z,101146.32
2023-05-03T03:15:07.182Z,101148.20
2023-05-03T03:17:39.414Z,101145.55
2023-05-03T03:20:11.821Z,101147.54
2023-05-03T03:22:40.287Z,101149.63
2023-05-03T03:25:08.776Z,101155.55
2023-05-03T03:27:39.078Z,101158.39
2023-05-03T03:30:08.630Z,101163.21
2023-05-03T03:32:36.984Z,101164.39
2023-05-03T03:35:05.739Z,101169.65
2023-05-03T03:37:33.786Z,101169.89
2023-05-03T03:40:01.731Z,101176.96
2023-05-03T03:42:31.020Z,101181.82
2023-05-03T03:44:59.147Z,101185.36
2023-05-03T03:47:27.132Z,101193.55
2023-05-03T03:49:55.031Z,101195.48
2023-05-03T03:52:22.824Z,101195.42
2023-05-03T03:54:50.684Z,101202.11
2023-05-03T03:57:20.734Z,101203.83
2023-05-03T03:59:48.635Z,101208.90
2023-05-03T04:02:16.596Z,101215.34
2023-05-03T04:04:44.595Z,101213.13
2023-05-03T04:07:12.624Z,101204.13
2023-05-03T04:09:40.421Z,101202.52
2023-05-03T04:12:08.433Z,101203.98
2023-05-03T04:14:36.513Z,101208.13
2023-05-03T04:17:04.663Z,101218.20
2023-05-03T04:19:33.307Z,101213.85
2023-05-03T04:22:01.347Z,101210.70
2023-05-03T04:24:30.587Z,101216.73
2023-05-03T04:26:59.130Z,101225.73
2023-05-03T04:29:30.151Z,101239.21
2023-05-03T04:31:58.311Z,101237.48
2023-05-03T04:34:26.382Z,101239.65
2023-05-03T04:36:54.855Z,101243.02
2023-05-03T04:39:24.031Z,101243.00
2023-05-03T04:41:53.580Z,101240.92
2023-05-03T04:44:22.391Z,101239.09
2023-05-03T04:46:51.335Z,101241.34
2023-05-03T04:49:19.526Z,101242.73
2023-05-03T04:51:47.430Z,101245.52
2023-05-03T04:54:15.589Z,101250.53
2023-05-03T04:56:43.394Z,101249.52
2023-05-03T04:59:16.059Z,101252.48
2023-05-03T05:01:44.004Z,101260.67
2023-05-03T05:04:12.055Z,101263.46
2023-05-03T05:06:43.905Z,101261.84
2023-05-03T05:09:25.969Z,101264.48
2023-05-03T05:11:57.225Z,101271.48
2023-05-03T05:14:28.106Z,101272.04
2023-05-03T05:16:56.032Z,101277.65
2023-05-03T05:19:24.096Z,101276.87
2023-05-03T05:21:52.627Z,101280.40
2023-05-03T05:24:21.209Z,101275.98
2023-05-03T05:26:49.635Z,101273.48
2023-05-03T05:29:18.020Z,101277.02
2023-05-03T05:31:46.482Z,101279.04
2023-05-03T05:34:14.555Z,101287.09
2023-05-03T05:36:42.666Z,101287.67
2023-05-03T05:39:10.450Z,101281.00
2023-05-03T05:41:38.400Z,101281.48
2023-05-03T05:44:07.265Z,101282.32
2023-05-03T05:46:35.271Z,101282.58
2023-05-03T05:49:03.384Z,101284.52
2023-05-03T05:51:31.822Z,101287.67
2023-05-03T05:54:00.336Z,101293.34
2023-05-03T05:56:29.138Z,101296.42
2023-05-03T05:58:57.768Z,101292.98
2023-05-03T06:01:27.059Z,101296.49
2023-05-03T06:03:56.429Z,101299.66
2023-05-03T06:06:24.497Z,101301.93
2023-05-03T06:08:53.571Z,101309.77
2023-05-03T06:11:22.248Z,101309.05
2023-05-03T06:13:50.316Z,101318.63
2023-05-03T06:16:19.522Z,101320.55
2023-05-03T06:18:47.261Z,101322.38
2023-05-03T06:21:15.629Z,101324.29
2023-05-03T06:23:43.654Z,101328.23
2023-05-03T06:26:12.105Z,101329.85
2023-05-03T06:28:40.153Z,101332.77
2023-05-03T06:31:08.187Z,101329.09
2023-05-03T06:33:36.089Z,101329.80
2023-05-03T06:36:04.228Z,101330.17
2023-05-03T06:38:32.057Z,101332.84
2023-05-03T06:40:59.948Z,101334.48
2023-05-03T06:43:27.946Z,101336.77
2023-05-03T06:46:01.904Z,101338.41
2023-05-03T06:48:29.787Z,101340.41
2023-05-03T06:50:57.686Z,101339.43
2023-05-03T06:53:25.531Z,101341.67
2023-05-03T06:55:53.347Z,101340.67
2023-05-03T06:58:21.749Z,101347.06
2023-05-03T07:00:53.542Z,101346.03
2023-05-03T07:03:21.800Z,101344.48
2023-05-03T07:05:49.673Z,101348.52
2023-05-03T07:08:17.917Z,101345.03
2023-05-03T07:10:45.888Z,101345.71
2023-05-03T07:13:14.254Z,101346.16
2023-05-03T07:15:42.007Z,101351.56
2023-05-03T07:18:09.862Z,101347.60
2023-05-03T07:20:37.813Z,101347.02
2023-05-03T07:23:06.581Z,101351.43
2023-05-03T07:25:34.802Z,101350.77
2023-05-03T07:28:03.235Z,101352.30
2023-05-03T07:30:30.998Z,101349.45
2023-05-03T07:32:58.881Z,101349.52
2023-05-03T07:35:29.328Z,101353.75
2023-05-03T07:37:57.163Z,101353.27
2023-05-03T07:40:25.162Z,101353.27
2023-05-03T07:42:52.932Z,101362.39
2023-05-03T07:45:21.128Z,101362.04
2023-05-03T07:47:48.908Z,101354.35
2023-05-03T07:50:16.842Z,101355.25
2023-05-03T07:52:44.786Z,101351.06
2023-05-03T07:55:12.822Z,101359.17
2023-05-03T07:57:40.546Z,101361.83
2023-05-03T08:00:10.914Z,101363.34
2023-05-03T08:02:41.697Z,101358.51
2023-05-03T08:05:13.966Z,101356.43
2023-05-03T08:07:42.183Z,101358.60
2023-05-03T08:10:10.646Z,101359.40
2023-05-03T08:12:38.702Z,101360.89
2023-05-03T08:15:07.207Z,101359.33
2023-05-03T08:17:42.974Z,101359.02
2023-05-03T08:20:12.254Z,101361.52
2023-05-03T08:22:41.514Z,101359.58
2023-05-03T08:25:09.992Z,101362.06
2023-05-03T08:27:39.057Z,101354.16
2023-05-03T08:30:07.796Z,101357.81
2023-05-03T08:32:35.643Z,101365.46
2023-05-03T08:35:07.178Z,101366.18
2023-05-03T08:37:40.167Z,101356.63
2023-05-03T08:40:11.653Z,101355.95
2023-05-03T08:42:44.779Z,101355.35
2023-05-03T08:45:16.298Z,101363.36
2023-05-03T08:47:45.582Z,101364.11
2023-05-03T08:50:15.067Z,101369.11
2023-05-03T08:52:43.486Z,101370.80
2023-05-03T08:55:11.682Z,101367.61
2023-05-03T08:57:39.900Z,101363.25
2023-05-03T09:00:11.247Z,101356.64
2023-05-03T09:02:40.148Z,101361.27
2023-05-03T09:05:14.370Z,101361.34
2023-05-03T09:08:09.966Z,101365.51
2023-05-03T09:10:40.072Z,101366.41
2023-05-03T09:13:09.414Z,101358.58
2023-05-03T09:15:37.534Z,101352.73
2023-05-03T09:18:15.827Z,101359.64
2023-05-03T09:20:54.207Z,101364.89
2023-05-03T09:23:31.507Z,101366.29
2023-05-03T09:26:00.397Z,101354.98
2023-05-03T09:28:28.347Z,101360.83
2023-05-03T09:31:07.243Z,101362.33
2023-05-03T09:33:35.330Z,101366.02
2023-05-03T09:36:05.151Z,101364.73
2023-05-03T09:38:34.930Z,101362.17
2023-05-03T09:41:08.703Z,101367.05
2023-05-03T09:44:02.940Z,101368.27
2023-05-03T09:46:32.512Z,101366.73
2023-05-03T09:49:00.462Z,101368.25
2023-05-03T09:51:29.731Z,101367.02
2023-05-03T09:53:58.981Z,101362.73
2023-05-03T09:56:26.822Z,101363.77
2023-05-03T09:58:54.814Z,101369.65
2023-05-03T10:01:25.406Z,101369.63
2023-05-03T10:03:58.230Z,101369.84
2023-05-03T10:06:29.982Z,101364.74
2023-05-03T10:09:14.499Z,101362.22
2023-05-03T10:11:50.496Z,101360.56
2023-05-03T10:14:18.933Z,101360.52
2023-05-03T10:16:50.142Z,101364.69
2023-05-03T10:19:25.102Z,101360.30
2023-05-03T10:22:04.547Z,101364.89
2023-05-03T10:24:33.852Z,101354.61
2023-05-03T10:27:02.459Z,101354.62
2023-05-03T10:29:37.639Z,101359.88
2023-05-03T10:32:06.473Z,101354.04
2023-05-03T10:34:36.697Z,101352.79
2023-05-03T10:37:12.330Z,101350.96
2023-05-03T10:39:44.769Z,101355.14
2023-05-03T10:42:13.298Z,101353.34
2023-05-03T10:44:52.916Z,101354.23
2023-05-03T10:47:25.540Z,101354.91
2023-05-03T10:50:12.233Z,101358.08
2023-05-03T10:52:39.989Z,101360.61
2023-05-03T10:55:16.156Z,101360.30
2023-05-03T10:57:48.051Z,101359.45
2023-05-03T11:00:38.440Z,101362.04
2023-05-03T11:03:22.050Z,101360.15
2023-05-03T11:05:51.837Z,101364.82
2023-05-03T11:08:21.773Z,101366.51
2023-05-03T11:10:57.411Z,101360.59
2023-05-03T11:13:26.053Z,101360.73
2023-05-03T11:15:56.294Z,101360.72
2023-05-03T11:18:27.340Z,101363.27
2023-05-03T11:20:55.947Z,101357.91
2023-05-03T11:23:28.999Z,101357.86
2023-05-03T11:25:59.808Z,101358.31
2023-05-03T11:28:27.621Z,101361.93
2023-05-03T11:30:55.484Z,101363.32
2023-05-03T11:33:23.513Z,101366.76
2023-05-03T11:35:56.085Z,101366.39
2023-05-03T11:38:23.824Z,101362.75
2023-05-03T11:40:51.786Z,101364.00
2023-05-03T11:43:19.589Z,101368.07
2023-05-03T11:45:49.276Z,101368.85
2023-05-03T11:48:17.482Z,101378.55
2023-05-03T11:50:51.317Z,101372.31
2023-05-03T11:53:19.619Z,101370.86
2023-05-03T11:55:49.360Z,101370.20
2023-05-03T11:58:26.863Z,101372.38
2023-05-03T12:00:56.831Z,101379.41
2023-05-03T12:03:32.207Z,101370.09
2023-05-03T12:06:02.705Z,101372.80
2023-05-03T12:08:36.533Z,101367.36
2023-05-03T12:11:07.585Z,101367.06
2023-05-03T12:13:39.691Z,101369.78
2023-05-03T12:16:13.557Z,101364.71
2023-05-03T12:18:58.805Z,101361.27
2023-05-03T12:21:59.345Z,101368.17
2023-05-03T12:24:34.889Z,101363.91
2023-05-03T12:27:04.296Z,101360.08
2023-05-03T12:29:35.405Z,101356.98
2023-05-03T12:32:05.081Z,101354.21
2023-05-03T12:34:36.203Z,101355.09
2023-05-03T12:37:06.427Z,101354.63
2023-05-03T12:39:39.277Z,101354.95
2023-05-03T12:42:09.277Z,101348.73
2023-05-03T12:44:42.687Z,101347.00
2023-05-03T12:47:11.643Z,101346.41
2023-05-03T12:49:46.008Z,101343.73
2023-05-03T12:55:02.883Z,101342.52
2023-05-03T12:57:36.706Z,101345.22
2023-05-03T13:00:14.374Z,101335.84
2023-05-03T13:05:27.698Z,101333.40
2023-05-03T13:08:07.993Z,101334.33
2023-05-03T13:10:39.075Z,101333.73
2023-05-03T13:13:07.365Z,101335.93
2023-05-03T13:15:36.510Z,101331.63
2023-05-03T13:18:07.840Z,101335.48
2023-05-03T13:20:37.817Z,101324.40
2023-05-03T13:23:05.830Z,101322.79
2023-05-03T13:25:33.630Z,101322.69
2023-05-03T13:28:01.709Z,101320.05
2023-05-03T13:30:29.746Z,101319.88
2023-05-03T13:32:57.624Z,101325.33
2023-05-03T13:35:25.876Z,101322.72
2023-05-03T13:37:53.649Z,101315.92
2023-05-03T13:40:21.623Z,101308.70
2023-05-03T13:42:49.516Z,101305.38
2023-05-03T13:45:18.384Z,101305.45
2023-05-03T13:48:13.306Z,101307.29
2023-05-03T13:50:34.437Z,101302.73
2023-05-03T13:53:02.252Z,101303.04
2023-05-03T13:55:30.050Z,101306.58
2023-05-03T13:57:57.983Z,101307.85
2023-05-03T14:00:25.910Z,101301.66
2023-05-03T14:02:53.801Z,101301.88
2023-05-03T14:05:21.739Z,101303.35
2023-05-03T14:07:49.529Z,101304.81
2023-05-03T14:10:17.380Z,101304.98
2023-05-03T14:12:45.760Z,101303.14
2023-05-03T14:15:14.557Z,101303.64
2023-05-03T14:17:43.745Z,101301.79
2023-05-03T14:20:12.460Z,101304.25
2023-05-03T14:22:40.468Z,101297.23
2023-05-03T14:25:08.911Z,101303.24
2023-05-03T14:27:37.121Z,101306.70
2023-05-03T14:30:05.980Z,101306.04
2023-05-03T14:32:34.119Z,101303.15
2023-05-03T14:35:02.107Z,101306.85
2023-05-03T14:37:30.919Z,101308.05
2023-05-03T14:39:58.776Z,101305.27
2023-05-03T14:42:30.255Z,101309.70
2023-05-03T14:44:58.777Z,101306.70
2023-05-03T14:47:26.636Z,101306.71
2023-05-03T14:49:54.488Z,101311.20
2023-05-03T14:52:22.732Z,101310.68
2023-05-03T14:54:50.708Z,101306.11
2023-05-03T14:57:18.486Z,101308.85
2023-05-03T14:59:47.258Z,101311.09
2023-05-03T15:02:15.254Z,101315.63
2023-05-03T15:04:43.401Z,101312.42
2023-05-03T15:07:11.605Z,101313.29
2023-05-03T15:09:39.863Z,101314.97
2023-05-03T15:12:08.169Z,101312.23
2023-05-03T15:14:35.929Z,101309.77
2023-05-03T15:17:03.818Z,101311.55
2023-05-03T15:19:32.396Z,101312.52
2023-05-03T15:22:00.179Z,101316.16
2023-05-03T15:24:27.979Z,101316.83
2023-05-03T15:26:57.132Z,101314.91
2023-05-03T15:29:25.106Z,101317.11
2023-05-03T15:31:52.870Z,101317.00
2023-05-03T15:34:20.646Z,101317.11
2023-05-03T15:36:48.639Z,101319.70
2023-05-03T15:39:16.389Z,101317.78
2023-05-03T15:41:45.835Z,101321.13
2023-05-03T15:44:15.085Z,101321.45
2023-05-03T15:46:43.105Z,101322.98
2023-05-03T15:49:12.004Z,101324.92
2023-05-03T15:51:40.166Z,101325.46
2023-05-03T15:54:07.945Z,101325.77
2023-05-03T15:56:38.255Z,101329.36
2023-05-03T15:59:06.301Z,101326.54
2023-05-03T16:01:34.436Z,101323.15
2023-05-03T16:04:02.255Z,101326.88
2023-05-03T16:06:30.075Z,101325.55
2023-05-03T16:08:59.307Z,101325.73
2023-05-03T16:11:27.186Z,101323.74
2023-05-03T16:13:54.987Z,101325.28
2023-05-03T16:16:22.890Z,101323.77
2023-05-03T16:18:50.974Z,101324.11
2023-05-03T16:21:18.843Z,101324.14
2023-05-03T16:23:47.179Z,101325.67
2023-05-03T16:26:15.282Z,101326.00
2023-05-03T16:28:43.167Z,101320.66
2023-05-03T16:31:12.893Z,101319.13
2023-05-03T16:33:40.768Z,101319.81
2023-05-03T16:36:09.608Z,101321.41
2023-05-03T16:38:39.004Z,101318.57
2023-05-03T16:41:07.425Z,101320.23
2023-05-03T16:43:35.316Z,101322.11
2023-05-03T16:46:03.263Z,101325.99
2023-05-03T16:48:32.666Z,101328.14
2023-05-03T16:51:01.040Z,101328.55
2023-05-03T16:53:28.771Z,101328.45
2023-05-03T16:55:56.907Z,101327.81
2023-05-03T16:58:25.315Z,101327.33
2023-05-03T17:00:53.517Z,101328.05
2023-05-03T17:03:21.656Z,101328.99
2023-05-03T17:05:49.851Z,101328.77
2023-05-03T17:08:17.958Z,101327.17
2023-05-03T17:10:45.792Z,101330.25
2023-05-03T17:13:13.931Z,101329.73
2023-05-03T17:15:43.039Z,101331.64
2023-05-03T17:18:11.790Z,101328.67
2023-05-03T17:20:39.603Z,101328.34
2023-05-03T17:23:07.617Z,101329.44
2023-05-03T17:25:36.081Z,101330.98
2023-05-03T17:28:04.442Z,101333.17
2023-05-03T17:30:32.599Z,101328.88
2023-05-03T17:33:00.476Z,101337.84
2023-05-03T17:35:28.627Z,101335.33
2023-05-03T17:37:57.156Z,101335.04
2023-05-03T17:40:25.353Z,101337.13
2023-05-03T17:42:53.226Z,101338.90
2023-05-03T17:45:21.268Z,101341.61
2023-05-03T17:47:49.268Z,101343.65
2023-05-03T17:50:17.358Z,101346.84
2023-05-03T17:52:45.361Z,101346.63
2023-05-03T17:55:13.310Z,101349.48
2023-05-03T17:57:41.181Z,101356.08
2023-05-03T18:00:15.170Z,101358.05
2023-05-03T18:02:43.447Z,101356.44
2023-05-03T18:05:12.236Z,101359.44
2023-05-03T18:07:40.090Z,101358.81
2023-05-03T18:10:09.501Z,101361.52
2023-05-03T18:12:37.516Z,101364.63
2023-05-03T18:15:06.326Z,101366.66
2023-05-03T18:17:34.271Z,101366.37
2023-05-03T18:20:02.734Z,101374.18
2023-05-03T18:22:30.926Z,101372.80
2023-05-03T18:25:01.980Z,101375.17
2023-05-03T18:27:29.891Z,101375.95
2023-05-03T18:29:57.638Z,101374.23
2023-05-03T18:32:26.130Z,101374.39
2023-05-03T18:34:53.973Z,101375.48
2023-05-03T18:37:23.989Z,101377.27
2023-05-03T18:39:52.765Z,101379.29
2023-05-03T18:42:21.424Z,101380.84
2023-05-03T18:44:49.560Z,101383.28
2023-05-03T18:47:20.967Z,101382.03
2023-05-03T18:49:53.066Z,101382.31
2023-05-03T18:52:23.066Z,101385.94
2023-05-03T18:54:51.444Z,101389.52
2023-05-03T18:57:20.139Z,101389.20
2023-05-03T18:59:59.578Z,101388.98
2023-05-03T19:02:31.535Z,101388.55
2023-05-03T19:05:00.082Z,101387.55
2023-05-03T19:07:28.155Z,101387.13
2023-05-03T19:09:57.456Z,101392.13
2023-05-03T19:12:25.438Z,101392.14
2023-05-03T19:14:53.383Z,101393.05
2023-05-03T19:17:21.385Z,101389.45
2023-05-03T19:19:49.128Z,101396.45
2023-05-03T19:22:16.977Z,101392.45
2023-05-03T19:24:44.888Z,101398.48
2023-05-03T19:27:12.806Z,101402.46
2023-05-03T19:29:40.711Z,101408.24
2023-05-03T19:32:08.493Z,101405.66
2023-05-03T19:34:36.492Z,101407.98
2023-05-03T19:37:05.065Z,101407.52
2023-05-03T19:39:35.697Z,101406.72
2023-05-03T19:42:04.531Z,101407.85
2023-05-03T19:44:33.553Z,101407.15
2023-05-03T19:47:01.530Z,101411.29
2023-05-03T19:49:29.855Z,101411.55
2023-05-03T19:51:57.752Z,101411.59
2023-05-03T19:54:26.213Z,101411.18
2023-05-03T19:56:55.248Z,101415.19
2023-05-03T19:59:23.115Z,101412.77
2023-05-03T20:01:51.221Z,101409.29
2023-05-03T20:04:19.350Z,101409.98
2023-05-03T20:06:47.280Z,101410.53
2023-05-03T20:09:15.503Z,101414.98
2023-05-03T20:11:43.580Z,101413.63
2023-05-03T20:14:11.828Z,101414.85
2023-05-03T20:16:39.968Z,101414.80
2023-05-03T20:19:07.964Z,101416.98
2023-05-03T20:21:35.658Z,101413.84
2023-05-03T20:24:04.873Z,101409.59
2023-05-03T20:26:32.610Z,101413.55
2023-05-03T20:29:00.803Z,101415.23
2023-05-03T20:31:28.556Z,101413.19
2023-05-03T20:33:56.720Z,101413.45
2023-05-03T20:36:24.649Z,101416.55
2023-05-03T20:38:52.556Z,101421.83
2023-05-03T20:41:20.736Z,101422.68
2023-05-03T20:43:48.548Z,101424.01
2023-05-03T20:46:18.399Z,101418.36
2023-05-03T20:48:46.238Z,101421.88
2023-05-03T20:51:14.958Z,101422.29
2023-05-03T20:53:42.776Z,101421.64
2023-05-03T20:56:11.363Z,101419.48
2023-05-03T20:58:39.561Z,101420.98
2023-05-03T21:01:08.217Z,101421.52
2023-05-03T21:03:36.437Z,101419.96
2023-05-03T21:06:05.907Z,101419.59
2023-05-03T21:08:35.887Z,101418.30
2023-05-03T21:11:04.323Z,101411.33
2023-05-03T21:13:35.565Z,101414.60
2023-05-03T21:16:03.780Z,101412.30
2023-05-03T21:18:31.579Z,101412.84
2023-05-03T21:20:59.419Z,101409.05
2023-05-03T21:23:27.291Z,101410.34
2023-05-03T21:25:56.371Z,101411.89
2023-05-03T21:28:24.439Z,101415.36
2023-05-03T21:30:54.510Z,101409.42
2023-05-03T21:33:22.537Z,101410.77
2023-05-03T21:35:50.441Z,101413.34
2023-05-03T21:38:18.268Z,101412.98
2023-05-03T21:40:47.159Z,101407.84
2023-05-03T21:43:15.401Z,101409.35
2023-05-03T21:45:44.157Z,101407.58
2023-05-03T21:48:12.646Z,101409.34
2023-05-03T21:50:40.561Z,101410.85
2023-05-03T21:53:08.381Z,101410.00
2023-05-03T21:55:36.277Z,101410.47
2023-05-03T21:58:04.103Z,101405.52
2023-05-03T22:00:31.941Z,101408.80
2023-05-03T22:02:59.821Z,101410.55
2023-05-03T22:05:28.154Z,101406.65
2023-05-03T22:07:55.909Z,101410.08
2023-05-03T22:10:23.729Z,101411.04
2023-05-03T22:12:51.769Z,101415.69
2023-05-03T22:15:19.792Z,101415.20
2023-05-03T22:17:47.751Z,101415.52
2023-05-03T22:20:15.567Z,101416.56
2023-05-03T22:22:43.624Z,101413.88
2023-05-03T22:25:22.942Z,101419.70
2023-05-03T22:27:51.916Z,101418.63
2023-05-03T22:30:20.411Z,101422.59
2023-05-03T22:32:48.218Z,101421.98
2023-05-03T22:35:16.156Z,101421.73
2023-05-03T22:37:43.933Z,101419.41
2023-05-03T22:40:11.988Z,101419.60
2023-05-03T22:42:39.802Z,101420.58
2023-05-03T22:45:08.626Z,101417.95
2023-05-03T22:47:36.471Z,101417.90
2023-05-03T22:50:05.761Z,101415.28
2023-05-03T22:52:33.708Z,101415.66
2023-05-03T22:55:02.746Z,101416.27
2023-05-03T22:57:30.813Z,101419.33
2023-05-03T22:59:59.426Z,101419.83
2023-05-03T23:02:27.417Z,101416.99
2023-05-03T23:04:55.258Z,101420.82
2023-05-03T23:07:23.059Z,101421.00
2023-05-03T23:09:59.706Z,101422.73
2023-05-03T23:12:27.477Z,101420.39
2023-05-03T23:14:55.225Z,101418.19
2023-05-03T23:17:23.218Z,101418.81
2023-05-03T23:19:51.082Z,101418.27
2023-05-03T23:22:18.929Z,101416.50
2023-05-03T23:24:46.648Z,101415.30
2023-05-03T23:27:14.439Z,101415.52
2023-05-03T23:29:43.096Z,101415.96
2023-05-03T23:32:11.375Z,101413.24
2023-05-03T23:34:39.763Z,101412.86
2023-05-03T23:40:39.565Z,101409.42
2023-05-03T23:43:07.552Z,101407.01
2023-05-03T23:45:35.644Z,101407.83
2023-05-03T23:48:03.492Z,101406.80
2023-05-03T23:50:31.310Z,101404.82
2023-05-03T23:52:59.374Z,101403.58
2023-05-03T23:55:27.136Z,101400.99
2023-05-03T23:57:54.902Z,101401.27
